Details for Thomas Cook Airlines at EGFF




Go Back


Latest METAR
Local Time

EGFF 180420Z AUTO 11010KT 9999 OVC011 06/06 Q1019

18/02/2018, 04:33:42

Description
Results
Thomas Cook Airlines Logo
Number of Pilots based at EGFF
1 Pilots Based here
Number of Thomas Cook Airlines Flights Departed from EGFF
0 Flights Departed
Number of Thomas Cook Airlines Flights Arrived at EGFF
0 Flights Arrived
Number of Thomas Cook Airlines Schedules Departing from EGFF
0 Schedules
Number of Thomas Cook Airlines Schedules Arriving at EGFF
1 Schedules
Number of Thomas Cook Airlines Schedules Departing from EGFF availible today
0 Schedules Today
Number of Thomas Cook Airlines Schedules Arriving at EGFF availible today
0 Schedules Today
Average Landing Rate at EGFF
-238 fpm
Thomas Cook Airlines Average Landing Rate at EGFF
0 fpm
Total Fuel Purchased at EGFF by Thomas Cook Airlines
0.00 kgs / 0.00 lbs

Pilots Based at EGFF


Pilot ID
Pilot Name
Pilot Rank
No. of Flights
No. of Flying Hours
Chris Williams
1
1.02
Content